Dayton, Virginia
Current Conditions -  °F | °C
As of 3:55 PM on Tuesday 21 Oct 2014 (Local Time) from KVBW Reporting Station
Overcast Overcast  
Wind Chill: 53°   Ceiling: 6000
Heat Index: 53°   Visibility: 4mi
Dew Point: 49°   Wind: 0mph
Humidity: 85%   Direction: NA
Pressure: 29.83"   Gusts: NA
Location:  38.41°N, 78.94°W
Report Text: KVBW 211955Z AUTO 00000KT 4SM SCT047 OVC060 12/09 A2983 RMK AO2 P0005 T01180093
Loading
Personal Weather Stations






























Interactive Weather Map
Tropical Storm Tracking
New forecast layout! Learn more

10-Day Weather Forecast

Advertisements
Track Severe Weather on mobile